Latest Weather Observations for Eucla

IDW60801

Issued at 12:05 pm WST Saturday 1 November 2014 (issued every 30 minutes, with the page automatically refreshed every 10 minutes)

About weather observations | Map of weather stations | Latest weather observations for WA | Other Formats
Station Details ID: 011003 Name: EUCLA Lat: -31.68 Lon: 128.90 Height: 93.1 m
Data from the previous 72 hours. | See also: Recent months at Eucla
Date/Time
WST
Temp
°C
App
Temp
°C
Dew
Point
Rel
Hum
%
Delta-T
°C
Wind Press
QNH
hPa
Press
MSL
hPa
Rain
since 9 am
mm
Dir
 
Spd
km/h
Gust
km/h
Spd
kts
Gust
kts
01/12:00pm 19.2 14.7 7.0 45 6.2 S 20 30 11 16 1022.8 1022.6 0.0
01/11:30am 19.2 14.5 7.6 47 5.9 SSE 22 33 12 18 1022.7 1022.5 0.0
01/11:00am 19.3 15.2 8.0 48 5.8 S 19 32 10 17 1022.9 1022.7 0.0
01/10:30am 19.3 15.1 8.3 49 5.7 SSE 20 32 11 17 1022.8 1022.6 0.0
01/10:00am 18.6 14.8 7.7 49 5.6 S 17 26 9 14 1023.0 1022.8 0.0
01/09:30am 19.0 14.7 7.8 48 5.8 S 20 30 11 16 1023.2 1023.0 0.0
01/09:00am 18.5 14.6 8.7 53 5.1 S 19 30 10 16 1023.4 1023.2 0.2
01/08:30am 17.2 13.5 9.4 60 4.1 S 19 30 10 16 1023.2 1023.0 0.2
01/08:00am 17.1 13.9 8.3 56 4.5 SSE 15 24 8 13 1023.0 1022.8 0.2
01/07:30am 16.5 12.7 7.4 55 4.6 S 17 28 9 15 1022.8 1022.6 0.2
01/07:00am 16.0 12.1 8.7 62 3.7 SSE 19 28 10 15 1022.4 1022.2 0.2
01/06:30am 15.8 12.1 6.3 53 4.6 S 15 24 8 13 1021.7 1021.5 0.2
01/06:00am 15.4 11.4 5.0 50 4.9 SSE 15 24 8 13 1021.1 1020.9 0.2
01/05:30am 15.0 11.3 4.4 49 4.9 SSE 13 20 7 11 1020.7 1020.5 0.2
01/05:00am 14.7 11.4 6.3 57 4.1 S 13 22 7 12 1020.5 1020.3 0.2
01/04:30am 14.3 11.2 7.4 63 3.4 S 13 19 7 10 1020.4 1020.2 0.2
01/04:00am 14.3 11.4 8.0 66 3.1 S 13 20 7 11 1020.0 1019.8 0.2
01/03:30am 14.0 11.5 6.4 60 3.7 S 9 13 5 7 1019.6 1019.4 0.2
01/03:00am 14.4 10.9 5.5 55 4.2 SSE 13 17 7 9 1019.4 1019.2 0.2
01/02:30am 14.4 10.7 6.5 59 3.8 S 15 26 8 14 1019.5 1019.3 0.2
01/02:00am 14.3 11.0 6.4 59 3.8 S 13 19 7 10 1019.5 1019.3 0.2
01/01:30am 14.2 9.8 5.0 54 4.3 S 17 28 9 15 1019.3 1019.1 0.2
01/01:00am 14.3 10.6 6.4 59 3.8 S 15 24 8 13 1018.8 1018.7 0.2
01/12:30am 14.3 10.2 6.4 59 3.8 S 17 26 9 14 1018.6 1018.5 0.2
01/12:00am 14.3 9.9 7.4 63 3.4 S 20 37 11 20 1018.5 1018.4 0.2
 
Date/Time
WST
Temp
°C
App
Temp
°C
Dew
Point
Rel
Hum
%
Delta-T
°C
Wind Press
QNH
hPa
Press
MSL
hPa
Rain
since 9 am
mm
Dir
 
Spd
km/h
Gust
km/h
Spd
kts
Gust
kts
31/11:30pm 14.7 10.9 7.7 63 3.5 S 17 28 9 15 1018.6 1018.5 0.2
31/11:00pm 14.3 10.3 6.6 60 3.7 S 17 28 9 15 1018.6 1018.5 0.2
31/10:30pm 14.3 9.9 6.4 59 3.8 S 19 30 10 16 1018.6 1018.5 0.2
31/10:00pm 14.5 9.8 6.1 57 4.0 S 20 35 11 19 1018.3 1018.2 0.2
31/09:30pm 14.8 9.1 6.6 58 4.0 S 26 39 14 21 1018.1 1018.0 0.2
31/09:00pm 14.9 10.5 7.2 60 3.8 SSW 20 35 11 19 1017.5 1017.4 0.2
31/08:30pm 15.3 10.4 8.3 63 3.5 S 24 37 13 20 1017.2 1017.1 0.2
31/08:00pm 15.4 10.6 8.9 65 3.3 S 24 39 13 21 1016.7 1016.6 0.2
31/07:30pm 15.7 11.3 10.5 71 2.8 S 24 35 13 19 1015.9 1015.8 0.2
31/07:00pm 15.7 10.8 9.8 68 3.1 SSW 26 39 14 21 1015.4 1015.3 0.2
31/06:30pm 15.9 11.1 11.5 75 2.4 SSW 28 43 15 23 1014.6 1014.4 0.2
31/06:08pm 16.3 11.4 11.2 72 2.8 SSW 28 50 15 27 1014.2 1014.0 0.2
31/06:00pm 16.5 11.6 11.4 72 2.8 SSW 28 43 15 23 1014.1 1013.9 0.2
31/05:30pm 16.7 12.4 12.0 74 2.6 SSW 26 43 14 23 1013.4 1013.2 0.2
31/05:00pm 16.7 12.2 12.5 76 2.3 SSW 28 41 15 22 1012.8 1012.6 0.2
31/04:39pm 16.9 12.0 12.6 76 2.4 SSW 30 48 16 26 1012.4 1012.2 0.2
31/04:30pm 17.0 12.1 12.7 76 2.4 SSW 30 44 16 24 1012.3 1012.1 0.2
31/04:00pm 16.2 13.2 14.9 92 0.8 SW 24 39 13 21 1011.7 1011.5 0.2
31/03:30pm 17.7 13.5 13.6 77 2.3 SSW 28 43 15 23 1011.3 1011.1 0.2
31/03:00pm 18.7 15.2 13.3 71 3.1 SSW 24 39 13 21 1010.9 1010.7 0.2
31/02:30pm 19.6 15.9 12.8 65 3.8 SSW 24 41 13 22 1010.5 1010.3 0.2
31/02:00pm 19.9 15.8 12.7 63 4.1 S 26 39 14 21 1010.4 1010.2 0.2
31/01:30pm 19.8 15.5 13.3 66 3.7 S 28 41 15 22 1010.0 1009.8 0.2
31/01:00pm 20.5 17.1 13.7 65 3.9 SSW 24 39 13 21 1009.9 1009.7 0.2
31/12:30pm 20.1 16.8 14.0 68 3.5 S 24 39 13 21 1009.8 1009.6 0.2
31/12:00pm 20.5 17.6 15.1 71 3.2 SSW 24 35 13 19 1009.7 1009.5 0.2
31/11:30am 19.9 16.9 14.9 73 2.9 SSW 24 33 13 18 1009.5 1009.3 0.2
31/11:00am 19.6 16.1 14.6 73 2.9 SSW 26 39 14 21 1009.3 1009.1 0.0
31/10:30am 18.7 15.3 14.8 78 2.3 S 26 39 14 21 1008.9 1008.7 0.0
31/10:00am 17.5 15.1 15.3 87 1.3 S 22 33 12 18 1008.5 1008.3 0.0
31/09:30am 17.8 16.7 16.3 91 0.9 S 17 28 9 15 1008.0 1007.8 0.0
31/09:00am 17.4 15.9 16.4 94 0.6 SSW 19 28 10 15 1007.7 1007.6 6.6
31/08:30am 17.6 16.6 16.5 93 0.7 S 17 22 9 12 1007.2 1007.1 6.6
31/08:00am 18.5 18.4 15.9 85 1.6 SE 11 17 6 9 1007.2 1007.1 6.2
31/07:30am 18.1 16.9 16.1 88 1.2 SSE 17 22 9 12 1006.5 1006.4 6.2
31/07:00am 18.2 17.2 16.5 90 1.0 SSW 17 24 9 13 1007.2 1007.1 6.2
31/06:30am 17.5 17.2 16.4 93 0.7 SSW 13 19 7 10 1007.4 1007.3 6.2
31/06:00am 17.4 17.0 16.3 93 0.7 S 13 19 7 10 1007.1 1007.0 6.2
31/05:30am 16.9 15.2 16.3 96 0.4 S 20 30 11 16 1006.9 1006.8 6.2
31/05:00am 16.9 15.8 16.4 97 0.3 S 17 30 9 16 1006.3 1006.2 6.2
31/04:30am 15.9 14.4 15.3 96 0.3 SW 17 28 9 15 1006.1 1006.0 6.2
31/04:00am 16.1 14.9 15.1 94 0.6 WSW 15 26 8 14 1005.9 1005.7 6.2
31/03:30am 16.3 16.6 15.0 92 0.8 SW 7 11 4 6 1005.1 1004.9 6.2
31/03:00am 16.5 17.0 15.0 91 0.9 SW 6 11 3 6 1005.0 1004.8 6.2
31/02:30am 16.2 16.4 14.7 91 0.9 N 7 11 4 6 1005.4 1005.2 6.2
31/02:00am 16.7 17.6 15.1 90 0.9 W 4 11 2 6 1005.6 1005.4 6.2
31/01:30am 17.1 17.2 14.4 84 1.6 WSW 7 15 4 8 1005.8 1005.6 6.2
31/01:00am 16.6 15.6 14.6 88 1.2 N 13 17 7 9 1005.3 1005.1 6.2
31/12:30am 17.0 15.8 15.0 88 1.2 NNE 15 20 8 11 1005.7 1005.5 6.2
31/12:00am 16.9 15.9 15.6 92 0.8 NNE 15 20 8 11 1006.1 1006.0 6.2
 
Date/Time
WST
Temp
°C
App
Temp
°C
Dew
Point
Rel
Hum
%
Delta-T
°C
Wind Press
QNH
hPa
Press
MSL
hPa
Rain
since 9 am
mm
Dir
 
Spd
km/h
Gust
km/h
Spd
kts
Gust
kts
30/11:30pm 17.2 16.5 15.5 90 1.0 NNE 13 19 7 10 1006.3 1006.2 6.2
30/11:00pm 17.9 16.8 15.2 84 1.6 NE 15 22 8 12 1006.8 1006.7 6.2
30/10:30pm 18.3 17.2 15.4 83 1.7 ESE 15 20 8 11 1007.2 1007.1 6.2
30/10:17pm 18.2 16.8 15.6 85 1.5 SE 17 26 9 14 1007.4 1007.3 6.2
30/10:00pm 17.7 16.4 16.9 95 0.5 S 19 28 10 15 1009.6 1009.4 5.8
30/09:30pm 17.5 17.2 16.4 93 0.7 SSW 13 19 7 10 1010.0 1009.8 4.6
30/09:00pm 17.5 15.9 16.0 91 0.9 SW 19 32 10 17 1010.4 1010.2 4.6
30/08:30pm 18.9 16.4 15.2 79 2.2 WSW 22 33 12 18 1011.7 1011.5 4.4
30/08:05pm 18.7 15.2 15.4 81 1.9 W 28 48 15 26 1011.2 1011.0 4.4
30/08:03pm 18.3 15.5 15.4 83 1.7 W 24 39 13 21 1010.8 1010.6 4.4
30/08:00pm 17.7 18.1 15.3 86 1.4 SSW 7 15 4 8 1008.8 1008.6 4.4
30/07:30pm 17.0 18.6 15.0 88 1.2 CALM 0 0 0 0 1007.6 1007.5 4.4
30/07:00pm 18.0 18.1 15.4 85 1.5 E 9 11 5 6 1007.3 1007.2 4.4
30/06:30pm 18.3 18.2 16.1 87 1.3 E 11 15 6 8 1007.3 1007.2 4.4
30/06:00pm 19.1 18.1 16.5 85 1.6 SE 17 24 9 13 1007.0 1006.9 4.4
30/05:30pm 20.0 20.2 15.8 77 2.5 SW 9 15 5 8 1008.3 1008.1 4.4
30/05:00pm 24.1 23.0 11.8 46 7.0 S 9 13 5 7 1008.2 1008.0 0.0
30/04:30pm 25.5 23.0 12.4 44 7.6 SSW 17 28 9 15 1007.7 1007.6 0.0
30/04:00pm 26.0 23.5 9.8 36 9.0 E 13 22 7 12 1007.6 1007.5 0.0
30/03:30pm 27.7 24.3 9.0 31 10.3 ESE 17 24 9 13 1007.6 1007.5 0.0
30/03:00pm 28.6 25.4 8.3 28 11.1 ESE 15 20 8 11 1008.0 1007.8 0.0
30/02:30pm 30.1 26.5 8.5 26 12.0 ESE 17 22 9 12 1007.9 1007.7 0.0
30/02:00pm 30.9 27.9 9.2 26 12.2 SE 15 20 8 11 1008.2 1008.0 0.0
30/01:30pm 31.5 28.7 8.5 24 12.8 SE 13 15 7 8 1008.8 1008.6 0.0
30/01:00pm 31.6 30.0 8.6 24 12.9 SE 7 13 4 7 1009.2 1009.0 0.0
30/12:30pm 30.5 28.5 7.0 23 12.7 ENE 7 11 4 6 1009.6 1009.4 0.0
30/12:00pm 30.6 28.5 8.3 25 12.4 NE 9 13 5 7 1010.0 1009.8 0.0
30/11:30am 30.0 26.5 5.3 21 13.0 W 13 19 7 10 1010.3 1010.1 0.0
30/11:00am 30.2 26.2 4.8 20 13.3 N 15 19 8 10 1010.2 1010.0 0.0
30/10:30am 30.1 26.1 4.7 20 13.2 N 15 20 8 11 1010.7 1010.5 0.0
30/10:00am 29.9 24.9 4.5 20 13.2 NNW 20 28 11 15 1011.3 1011.1 0.0
30/09:30am 27.9 22.9 3.6 21 12.2 N 19 28 10 15 1011.9 1011.7 0.0
30/09:00am 27.6 20.7 2.6 20 12.3 N 28 37 15 20 1011.7 1011.5 0.0
30/08:30am 27.4 20.2 3.2 21 12.1 NNE 30 39 16 21 1011.7 1011.5 0.0
30/08:00am 24.6 17.8 3.3 25 10.4 NNE 28 37 15 20 1011.7 1011.5 0.0
30/07:30am 23.5 16.8 3.4 27 9.8 NNE 28 37 15 20 1012.1 1011.9 0.0
30/07:00am 22.0 16.0 3.6 30 8.9 N 24 35 13 19 1012.2 1012.0 0.0
30/06:30am 21.1 15.3 4.2 33 8.2 NNE 24 37 13 20 1012.1 1011.9 0.0
30/06:00am 19.9 14.1 4.4 36 7.5 N 24 35 13 19 1012.1 1011.9 0.0
30/05:30am 18.5 12.8 4.7 40 6.6 N 24 33 13 18 1012.0 1011.8 0.0
30/05:00am 18.5 12.8 4.7 40 6.7 NNE 24 33 13 18 1012.0 1011.8 0.0
30/04:30am 18.5 13.2 5.0 41 6.5 NNE 22 35 12 19 1011.7 1011.5 0.0
30/04:00am 18.3 13.0 5.2 42 6.4 N 22 33 12 18 1011.6 1011.4 0.0
30/03:30am 18.3 13.1 5.5 43 6.3 NNE 22 32 12 17 1011.5 1011.3 0.0
30/03:00am 18.3 12.9 6.2 45 6.0 NNE 24 33 13 18 1011.7 1011.5 0.0
30/02:30am 18.5 12.6 6.0 44 6.2 NNE 26 37 14 20 1011.8 1011.6 0.0
30/02:00am 18.3 12.6 6.5 46 5.9 NNE 26 37 14 20 1012.1 1011.9 0.0
30/01:30am 17.9 13.0 6.7 48 5.6 NNE 22 32 12 17 1012.5 1012.3 0.0
30/01:00am 17.6 12.9 7.6 52 5.1 NNE 22 30 12 16 1012.7 1012.5 0.0
30/12:30am 17.6 12.9 7.9 53 4.9 NNE 22 32 12 17 1012.9 1012.7 0.0
30/12:00am 17.8 13.0 7.5 51 5.2 NE 22 32 12 17 1013.2 1013.0 0.0
 
Date/Time
WST
Temp
°C
App
Temp
°C
Dew
Point
Rel
Hum
%
Delta-T
°C
Wind Press
QNH
hPa
Press
MSL
hPa
Rain
since 9 am
mm
Dir
 
Spd
km/h
Gust
km/h
Spd
kts
Gust
kts
29/11:30pm 17.6 13.3 7.1 50 5.3 NE 19 28 10 15 1013.4 1013.2 0.0
29/11:00pm 17.7 13.7 6.6 48 5.5 NE 17 22 9 12 1014.0 1013.8 0.0
29/10:30pm 18.2 14.2 6.7 47 5.8 NE 17 22 9 12 1014.3 1014.1 0.0
29/10:00pm 18.8 15.2 6.6 45 6.1 NE 15 26 8 14 1014.8 1014.6 0.0
29/09:30pm 19.1 15.1 6.6 44 6.3 ENE 17 26 9 14 1014.8 1014.6 0.0
29/09:00pm 19.4 14.9 6.2 42 6.6 ENE 19 28 10 15 1015.1 1014.9 0.0
29/08:30pm 19.7 15.1 5.7 40 6.9 ENE 19 28 10 15 1014.9 1014.7 0.0
29/08:00pm 19.8 15.2 5.5 39 7.1 ENE 19 26 10 14 1015.0 1014.8 0.0
29/07:30pm 20.0 15.6 4.9 37 7.4 ENE 17 24 9 13 1015.3 1015.2 0.0
29/07:00pm 20.1 15.0 3.3 33 8.0 ENE 19 30 10 16 1014.9 1014.7 0.0
29/06:30pm 20.4 15.3 3.2 32 8.2 ENE 19 28 10 15 1015.1 1014.9 0.0
29/06:00pm 20.3 15.3 4.8 36 7.6 E 20 30 11 16 1014.9 1014.7 0.0
29/05:30pm 20.5 16.0 6.8 41 7.0 E 20 32 11 17 1014.6 1014.4 0.0
29/05:00pm 21.3 17.2 7.9 42 7.0 E 19 32 10 17 1014.4 1014.2 0.0
29/04:30pm 21.3 16.8 8.6 44 6.7 E 22 30 12 16 1014.4 1014.2 0.0
29/04:00pm 21.7 18.2 10.2 48 6.3 E 19 28 10 15 1014.4 1014.2 0.0
29/03:30pm 21.3 18.1 11.9 55 5.3 E 20 33 11 18 1014.2 1014.0 0.0
29/03:00pm 19.5 16.9 13.9 70 3.2 ESE 20 30 11 16 1014.3 1014.1 0.0
29/02:30pm 19.5 17.3 14.5 73 2.9 ESE 19 30 10 16 1014.5 1014.3 0.0
29/02:00pm 21.5 18.1 13.7 61 4.5 ESE 24 32 13 17 1014.5 1014.3 0.0
29/01:30pm 22.2 19.3 13.0 56 5.3 ESE 20 30 11 16 1014.5 1014.3 0.0
29/01:00pm 22.1 19.3 13.2 57 5.1 ESE 20 30 11 16 1014.9 1014.7 0.0
29/12:30pm 22.9 20.4 12.2 51 6.1 SE 17 24 9 13 1015.2 1015.1 0.0

Other Formats:

Comma delimited format used in spreadsheet applications
http://www.bom.gov.au/fwo/IDW60801/IDW60801.94647.axf

JavaScript Object Notation format (JSON) in row-major order
http://www.bom.gov.au/fwo/IDW60801/IDW60801.94647.json